Time;durP1;ratioP1;P1;durP2;ratioP2;P2;SDS_P1;SDS_P2;PMS_P1;PMS_P2;Temp;Humidity;BMP_temperature;BMP_pressure;BME280_temperature;BME280_humidity;BME280_pressure;Samples;Min_cycle;Max_cycle;Signal;HPM_P1;HPM_P2
2022/12/25 00:00:32;;;;;;;3.60;1.50;;;;;;;-1.98;100.00;99129.47;4912446;28;20063;-83
2022/12/25 00:03:05;;;;;;;3.25;1.20;;;;;;;-1.59;100.00;99161.66;4908045;28;20048;-84
2022/12/25 00:05:49;;;;;;;;;;;;;;;;;;;;;
2022/12/25 00:08:22;;;;;;;7.30;2.47;;;;;;;-1.54;100.00;99177.94;4901788;28;20365;-85
2022/12/25 00:10:59;;;;;;;2.95;1.83;;;;;;;-1.40;100.00;99189.25;4928270;28;20124;-85
2022/12/25 00:13:30;;;;;;;3.28;1.40;;;;;;;-1.43;100.00;99193.47;4914082;28;20104;-83
2022/12/25 00:16:09;;;;;;;2.60;1.40;;;;;;;-1.50;100.00;99179.69;4913804;28;20357;-85
2022/12/25 00:18:40;;;;;;;4.50;1.30;;;;;;;-1.65;100.00;99164.09;4916168;28;20054;-85
2022/12/25 00:21:12;;;;;;;5.13;1.50;;;;;;;-2.44;100.00;99021.28;4912885;28;20415;-82
2022/12/25 00:23:53;;;;;;;3.35;1.30;;;;;;;-2.35;99.84;99036.75;4916598;28;20041;-87
2022/12/25 00:26:26;;;;;;;3.17;1.45;;;;;;;-1.25;99.67;99200.53;4904331;28;20175;-84
2022/12/25 00:28:58;;;;;;;6.05;1.92;;;;;;;-1.26;99.90;99209.09;4920092;28;20055;-85
2022/12/25 00:31:29;;;;;;;6.05;1.95;;;;;;;-1.58;99.86;99161.66;4918875;28;20128;-82
2022/12/25 00:34:00;;;;;;;5.30;1.60;;;;;;;-1.26;99.83;99209.09;4922274;28;20061;-83
2022/12/25 00:36:30;;;;;;;2.78;1.20;;;;;;;-1.26;99.68;99214.22;4924890;28;20049;-83
2022/12/25 00:39:11;;;;;;;1.70;1.10;;;;;;;-1.55;99.93;99142.91;4907758;28;20201;-83
2022/12/25 00:44:31;;;;;;;6.20;1.45;;;;;;;-1.04;99.26;99205.97;4913892;28;20062;-85
2022/12/25 00:47:02;;;;;;;3.30;1.35;;;;;;;-1.40;99.57;99145.69;4932292;28;20079;-84
2022/12/25 00:56:42;;;;;;;3.58;1.40;;;;;;;-0.99;99.00;99203.47;4622396;29;20051;-85
2022/12/25 00:59:31;;;;;;;4.07;1.30;;;;;;;-1.39;98.80;99142.28;4628937;30;20066;-86
2022/12/25 01:05:07;;;;;;;5.28;1.67;;;;;;;-1.61;99.59;99079.63;4621303;30;20053;-87
2022/12/25 01:10:56;;;;;;;2.20;1.30;;;;;;;-1.11;97.87;99127.25;4626576;30;20275;-86
2022/12/25 01:13:33;;;;;;;3.88;1.58;;;;;;;-0.83;97.87;99163.47;4679466;29;20051;-85
2022/12/25 01:16:09;;;;;;;3.42;1.45;;;;;;;-1.25;97.79;99098.03;4703243;29;20074;-84
2022/12/25 01:18:42;;;;;;;2.90;1.63;;;;;;;-0.87;97.61;99152.34;4787862;29;20052;-85
2022/12/25 01:21:14;;;;;;;2.85;1.30;;;;;;;-1.96;97.89;99010.03;4781101;29;20052;-86
2022/12/25 01:23:46;;;;;;;5.78;1.70;;;;;;;-1.03;98.43;99151.28;4786595;29;20106;-80
2022/12/25 01:26:18;;;;;;;6.45;1.48;;;;;;;-1.00;98.98;99171.84;4808526;28;20097;-81
2022/12/25 01:28:50;;;;;;;3.63;1.17;;;;;;;-1.10;99.44;99169.97;4900958;28;20249;-81
2022/12/25 01:31:23;;;;;;;4.00;1.60;;;;;;;-1.15;99.93;99171.63;4900928;28;20093;-83
2022/12/25 01:33:54;;;;;;;3.15;1.40;;;;;;;-1.21;100.00;99171.56;4901538;28;20436;-82
2022/12/25 01:36:26;;;;;;;1.77;1.30;;;;;;;-1.38;100.00;99138.88;4901423;28;20056;-82
2022/12/25 01:38:57;;;;;;;2.22;1.35;;;;;;;-1.36;100.00;99161.97;4898044;28;20060;-82
2022/12/25 01:41:27;;;;;;;2.42;1.20;;;;;;;-1.29;100.00;99157.78;4898342;28;20049;-83
2022/12/25 01:44:01;;;;;;;4.38;1.40;;;;;;;-1.27;100.00;99153.53;4900483;28;20180;-82
2022/12/25 01:46:34;;;;;;;2.05;1.27;;;;;;;-1.26;100.00;99157.81;4895635;28;20057;-81
2022/12/25 01:49:08;;;;;;;3.35;1.50;;;;;;;-1.29;100.00;99162.91;4901724;28;20060;-80
2022/12/25 01:51:41;;;;;;;2.53;1.40;;;;;;;-1.40;100.00;99130.31;4907965;28;20044;-81
2022/12/25 01:54:18;;;;;;;2.50;1.30;;;;;;;-1.32;100.00;99154.34;4892764;28;20073;-83
2022/12/25 01:56:52;;;;;;;2.45;1.20;;;;;;;-1.79;100.00;99070.00;4895840;28;20307;-83
2022/12/25 01:59:26;;;;;;;5.68;1.80;;;;;;;-1.49;100.00;99125.06;4894332;28;20076;-82
2022/12/25 02:02:00;;;;;;;4.50;1.58;;;;;;;-1.33;100.00;99151.75;4911873;28;20107;-83
2022/12/25 02:04:39;;;;;;;2.67;1.20;;;;;;;-1.53;100.00;99130.97;4916057;28;20105;-81
2022/12/25 02:07:16;;;;;;;1.63;1.30;;;;;;;-1.26;100.00;99152.69;4910634;28;20052;-81
2022/12/25 02:09:48;;;;;;;2.60;1.20;;;;;;;-1.23;100.00;99142.47;4917603;28;20044;-81
2022/12/25 02:12:22;;;;;;;2.78;1.50;;;;;;;-1.17;100.00;99137.44;4917790;28;20056;-79
2022/12/25 02:14:58;;;;;;;3.08;1.50;;;;;;;-1.02;100.00;99141.88;4920181;28;20051;-81
2022/12/25 02:17:42;;;;;;;1.95;1.30;;;;;;;-1.05;100.00;99147.81;4900000;28;20061;-80
2022/12/25 02:20:47;;;;;;;2.65;1.35;;;;;;;-1.06;100.00;99130.75;4901305;28;20376;-81
2022/12/25 02:23:47;;;;;;;3.38;1.50;;;;;;;-0.94;100.00;99140.28;4909514;28;20063;-81
2022/12/25 02:26:36;;;;;;;1.33;1.10;;;;;;;-0.92;100.00;99136.91;4921430;28;20071;-80
2022/12/25 02:29:16;;;;;;;3.13;1.10;;;;;;;-0.92;100.00;99136.91;4912531;28;20049;-80
2022/12/25 02:31:54;;;;;;;2.25;1.10;;;;;;;-0.99;100.00;99131.69;4906473;28;20127;-80
2022/12/25 02:34:32;;;;;;;2.78;1.05;;;;;;;-1.01;100.00;99134.22;4909793;28;20068;-85
2022/12/25 02:37:13;;;;;;;1.38;0.93;;;;;;;-1.25;100.00;99080.94;4906695;28;20064;-83
2022/12/25 02:39:59;;;;;;;2.38;1.00;;;;;;;-0.95;100.00;99154.81;4908109;28;20115;-82
2022/12/25 03:11:29;;;;;;;3.42;1.05;;;;;;;-0.93;100.00;99132.59;4883352;28;20268;-89
2022/12/25 03:11:56;;;;;;;3.28;1.00;;;;;;;-0.83;100.00;99142.97;4888869;28;20046;-88
2022/12/25 03:17:29;;;;;;;3.67;1.20;;;;;;;-0.74;100.00;99125.97;4881364;28;20368;-88
2022/12/25 03:28:26;;;;;;;2.45;1.10;;;;;;;-0.83;100.00;99107.06;4885972;28;20325;-87
2022/12/25 03:31:13;;;;;;;1.95;0.90;;;;;;;-1.29;100.00;99039.91;4907967;28;20060;-88
2022/12/25 04:36:14;;;;;;;2.42;1.33;;;;;;;-1.26;100.00;99165.50;4828438;28;20100;-54
2022/12/25 04:38:48;;;;;;;2.65;1.63;;;;;;;-1.27;100.00;99166.34;4859681;28;20224;-55
2022/12/25 04:41:25;;;;;;;3.13;1.40;;;;;;;-1.28;100.00;99165.47;4837539;28;20045;-55
2022/12/25 04:44:28;;;;;;;2.58;1.30;;;;;;;-1.28;100.00;99164.63;4876747;28;20068;-56
2022/12/25 04:47:19;;;;;;;1.83;1.30;;;;;;;-1.31;100.00;99163.75;4860400;28;20050;-55
2022/12/25 04:53:06;;;;;;;3.55;1.50;;;;;;;-1.29;100.00;99178.28;4803778;28;20066;-57
2022/12/25 04:55:50;;;;;;;4.55;1.40;;;;;;;-1.33;100.00;99178.22;4827824;28;20136;-56
2022/12/25 04:58:41;;;;;;;3.95;1.40;;;;;;;-1.28;100.00;99180.00;4826394;28;20051;-56
2022/12/25 05:01:36;;;;;;;4.70;1.58;;;;;;;-1.41;100.00;99168.72;4770887;28;20526;-57
2022/12/25 05:04:25;;;;;;;4.00;1.38;;;;;;;-1.33;100.00;99185.91;4781310;28;20082;-57
2022/12/25 05:07:09;;;;;;;7.03;1.52;;;;;;;-1.34;100.00;99202.16;4804577;28;20755;-57
2022/12/25 05:09:58;;;;;;;10.00;1.80;;;;;;;-1.35;100.00;99200.44;4747542;29;20484;-58
2022/12/25 05:12:45;;;;;;;6.97;1.50;;;;;;;-1.41;100.00;99190.06;4770002;28;20385;-58
2022/12/25 05:15:38;;;;;;;4.55;1.38;;;;;;;-1.37;100.00;99196.13;4806637;29;20131;-58
2022/12/25 05:18:48;;;;;;;6.60;1.80;;;;;;;-1.41;100.00;99200.31;4802412;29;20103;-59
2022/12/25 05:21:27;;;;;;;4.28;1.35;;;;;;;-1.41;100.00;99212.28;4767702;29;20055;-59
2022/12/25 05:27:03;;;;;;;7.13;1.95;;;;;;;-1.42;100.00;99214.00;4775808;29;20468;-59
2022/12/25 05:29:42;;;;;;;5.15;1.85;;;;;;;-1.44;100.00;99210.53;4807773;29;20087;-59
2022/12/25 05:35:45;;;;;;;7.88;1.77;;;;;;;-1.46;100.00;99214.78;4791150;29;20426;-59
2022/12/25 05:47:54;;;;;;;8.43;2.53;;;;;;;-1.50;100.00;99228.38;4792836;28;20132;-59
2022/12/25 05:50:54;;;;;;;9.32;2.10;;;;;;;-1.48;100.00;99234.38;4777623;29;20218;-59
2022/12/25 05:53:46;;;;;;;8.90;2.08;;;;;;;-1.52;100.00;99222.38;4798037;29;20053;-60
2022/12/25 05:56:37;;;;;;;9.93;3.15;;;;;;;-1.45;100.00;99239.53;4809723;28;20046;-60
2022/12/25 05:59:18;;;;;;;4.60;1.73;;;;;;;-1.45;100.00;99242.09;4857392;28;20100;-59
2022/12/25 06:02:02;;;;;;;5.20;1.88;;;;;;;-1.44;100.00;99245.56;4899885;28;21695;-60
2022/12/25 06:04:59;;;;;;;11.32;2.50;;;;;;;-1.48;100.00;99249.75;4852103;28;20046;-61
2022/12/25 06:13:52;;;;;;;10.40;2.65;;;;;;;-1.53;100.00;99266.75;4859616;28;20073;-61
2022/12/25 06:16:53;;;;;;;11.30;2.88;;;;;;;-1.52;100.00;99258.25;4884640;28;20038;-61
2022/12/25 06:19:30;;;;;;;8.38;2.60;;;;;;;-1.53;100.00;99261.63;4830068;28;20049;-60
2022/12/25 06:22:34;;;;;;;14.25;2.50;;;;;;;-1.56;100.00;99271.84;4847504;28;20351;-60
2022/12/25 06:25:25;;;;;;;10.65;2.60;;;;;;;-1.55;100.00;99274.44;4875370;28;20052;-61
2022/12/25 06:28:12;;;;;;;7.30;2.33;;;;;;;-1.57;100.00;99265.00;4785654;28;20387;-61
2022/12/25 06:30:50;;;;;;;10.00;2.40;;;;;;;-1.60;100.00;99275.16;4828652;28;20414;-60
2022/12/25 06:36:41;;;;;;;16.85;3.08;;;;;;;-1.63;100.00;99275.13;4898839;28;20058;-60
2022/12/25 06:39:21;;;;;;;13.27;2.95;;;;;;;-1.65;100.00;99274.22;4820438;28;20069;-61
2022/12/25 06:42:04;;;;;;;9.95;3.08;;;;;;;-1.63;100.00;99286.22;4859259;28;20072;-62
2022/12/25 06:44:54;;;;;;;17.67;3.83;;;;;;;-1.63;100.00;99287.94;4851534;28;20046;-62
2022/12/25 06:47:30;;;;;;;21.85;3.28;;;;;;;-1.66;100.00;99275.09;4818264;28;20084;-62
2022/12/25 06:50:27;;;;;;;13.80;3.15;;;;;;;-1.69;100.00;99285.28;4848570;28;20053;-61
2022/12/25 06:53:20;;;;;;;15.63;3.38;;;;;;;-1.69;100.00;99291.25;4854570;28;20043;-61
2022/12/25 06:56:04;;;;;;;13.57;3.28;;;;;;;-1.72;100.00;99291.22;4776326;28;20162;-61
2022/12/25 06:59:10;;;;;;;15.40;3.75;;;;;;;-1.72;100.00;99291.22;4876309;28;20050;-61
2022/12/25 08:22:49;;;;;;;13.90;3.03;;;;;;;-1.80;100.00;99355.09;4891732;29;20046;-60
2022/12/25 08:25:28;;;;;;;13.13;3.45;;;;;;;-1.86;100.00;99324.25;4940322;29;20039;-60
2022/12/25 08:30:54;;;;;;;13.57;2.90;;;;;;;-1.82;100.00;99364.44;4939175;29;20055;-61
2022/12/25 08:33:33;;;;;;;17.00;3.10;;;;;;;-1.81;100.00;99357.63;4940217;29;20044;-62
2022/12/25 08:36:17;;;;;;;6.75;2.42;;;;;;;-1.87;100.00;99363.50;4931348;29;20279;-61
2022/12/25 08:39:04;;;;;;;14.45;2.80;;;;;;;-1.84;100.00;99378.91;4787267;29;20067;-61
2022/12/25 08:42:25;;;;;;;17.08;3.13;;;;;;;-1.92;100.00;99362.56;4796477;28;20977;-62
2022/12/25 08:45:21;;;;;;;16.63;3.13;;;;;;;-1.83;100.00;99385.75;4858324;28;20266;-62
2022/12/25 08:48:31;;;;;;;10.25;2.10;;;;;;;-2.55;100.00;99263.19;4832942;28;20370;-62
2022/12/25 08:51:09;;;;;;;9.88;2.75;;;;;;;-1.84;100.00;99384.03;4865286;28;20049;-62
2022/12/25 08:53:54;;;;;;;8.90;2.53;;;;;;;-2.17;100.00;99328.78;4856045;28;20070;-63
2022/12/25 08:56:38;;;;;;;14.68;3.17;;;;;;;-1.85;100.00;99387.41;4854816;28;20050;-61
2022/12/25 09:02:01;;;;;;;12.57;2.83;;;;;;;-2.10;100.00;99349.38;4828349;28;20272;-63
2022/12/25 09:04:38;;;;;;;12.27;2.60;;;;;;;-1.86;100.00;99380.59;4865259;28;20282;-63
2022/12/25 09:07:25;;;;;;;15.60;3.50;;;;;;;-1.87;100.00;99394.22;4848870;28;20444;-62
2022/12/25 09:10:27;;;;;;;9.07;2.53;;;;;;;-1.83;100.00;99396.00;4845126;28;20042;-61
2022/12/25 09:13:13;;;;;;;9.00;2.17;;;;;;;-1.83;100.00;99396.00;4852072;28;20110;-63
2022/12/25 09:15:55;;;;;;;12.27;2.75;;;;;;;-1.84;100.00;99399.41;4881614;28;20050;-63
2022/12/25 09:18:30;;;;;;;8.60;2.42;;;;;;;-1.84;100.00;99409.66;4869354;28;20065;-64
2022/12/25 09:21:28;;;;;;;10.70;2.65;;;;;;;-2.09;100.00;99366.47;4841674;28;20400;-63
2022/12/25 09:24:04;;;;;;;16.20;3.08;;;;;;;-1.83;100.00;99405.38;4886556;28;20041;-63
2022/12/25 09:26:58;;;;;;;9.98;2.72;;;;;;;-2.11;100.00;99356.19;4874389;28;20042;-64
2022/12/25 09:29:43;;;;;;;13.75;2.63;;;;;;;-1.84;100.00;99401.97;4863882;28;20355;-64
2022/12/25 09:32:23;;;;;;;10.88;2.53;;;;;;;-1.82;100.00;99408.00;4893992;28;20053;-63
2022/12/25 09:35:03;;;;;;;6.97;2.38;;;;;;;-1.87;100.00;99401.03;4877357;28;20041;-64
2022/12/25 09:37:40;;;;;;;8.80;2.55;;;;;;;-1.82;100.00;99423.34;4873180;28;20048;-64
2022/12/25 09:40:30;;;;;;;7.82;2.35;;;;;;;-1.81;100.00;99414.81;4866822;28;20085;-66
2022/12/25 09:43:09;;;;;;;5.38;1.92;;;;;;;-1.83;100.00;99426.72;4843029;28;20081;-64
2022/12/25 09:45:56;;;;;;;6.13;1.77;;;;;;;-1.82;100.00;99418.22;4874942;28;20044;-64
2022/12/25 09:48:38;;;;;;;7.72;1.88;;;;;;;-1.82;100.00;99438.72;4871481;28;20056;-63
2022/12/25 09:51:20;;;;;;;6.15;2.08;;;;;;;-2.09;100.00;99384.41;4865233;28;20057;-65
2022/12/25 09:54:14;;;;;;;8.25;1.95;;;;;;;-2.12;100.00;99386.88;4844716;28;20192;-65
2022/12/25 09:57:01;;;;;;;6.28;1.92;;;;;;;-2.11;100.00;99383.50;4844562;28;20041;-64
2022/12/25 09:59:51;;;;;;;10.27;2.30;;;;;;;-2.31;100.00;99355.78;4851633;28;20050;-64
2022/12/25 10:02:47;;;;;;;10.18;2.17;;;;;;;-1.84;100.00;99436.97;4855315;28;20066;-65
2022/12/25 10:05:44;;;;;;;6.60;2.05;;;;;;;-1.88;100.00;99433.44;4860569;28;20046;-65
2022/12/25 10:08:39;;;;;;;8.65;2.55;;;;;;;-1.92;100.00;99426.56;4869538;28;20042;-65
2022/12/25 10:11:58;;;;;;;7.95;1.70;;;;;;;-1.86;100.00;99442.03;4860249;28;20202;-64
2022/12/25 10:14:41;;;;;;;7.07;2.20;;;;;;;-1.86;100.00;99442.03;4856885;28;20053;-66
2022/12/25 10:17:32;;;;;;;3.85;1.88;;;;;;;-1.84;100.00;99444.63;4889936;28;20049;-65
2022/12/25 10:20:34;;;;;;;7.38;2.28;;;;;;;-1.86;100.00;99452.28;4869118;28;20049;-63
2022/12/25 10:23:28;;;;;;;5.78;1.77;;;;;;;-1.86;100.00;99462.53;4886857;28;20287;-65
2022/12/25 10:26:09;;;;;;;6.55;1.75;;;;;;;-1.86;100.00;99454.84;4877617;28;20051;-66
2022/12/25 10:31:59;;;;;;;3.13;1.70;;;;;;;-1.91;100.00;99448.75;4869355;28;20066;-66
2022/12/25 10:34:48;;;;;;;3.70;1.67;;;;;;;-1.86;100.00;99467.66;4873763;28;20184;-68
2022/12/25 10:37:48;;;;;;;13.95;2.53;;;;;;;-1.86;100.00;99462.53;4847913;28;20130;-69
2022/12/25 10:41:05;;;;;;;4.38;1.63;;;;;;;-1.88;100.00;99474.41;4871216;28;20136;-66
2022/12/25 10:43:44;;;;;;;6.88;2.05;;;;;;;-1.88;100.00;99474.41;4828561;28;20109;-68
2022/12/25 10:46:30;;;;;;;9.50;1.98;;;;;;;-1.89;100.00;99477.81;4873291;28;20113;-68
2022/12/25 10:49:25;;;;;;;8.50;1.80;;;;;;;-1.88;100.00;99479.53;4829380;28;20073;-70
2022/12/25 10:52:29;;;;;;;3.72;1.55;;;;;;;-1.87;100.00;99488.09;4885132;28;20739;-65
2022/12/25 10:55:34;;;;;;;5.30;1.90;;;;;;;-1.88;100.00;99488.94;4892420;28;20053;-66
2022/12/25 10:58:31;;;;;;;5.88;1.70;;;;;;;-1.87;100.00;99491.53;4867388;28;20053;-67
2022/12/25 11:01:14;;;;;;;4.95;1.95;;;;;;;-1.97;100.00;99479.38;4855379;28;20058;-67
2022/12/25 11:04:04;;;;;;;6.05;1.60;;;;;;;-1.91;100.00;99494.84;4879891;28;20046;-68
2022/12/25 11:06:53;;;;;;;4.53;1.77;;;;;;;-2.06;100.00;99484.28;4878454;28;20088;-66
2022/12/25 11:09:33;;;;;;;6.72;1.83;;;;;;;-1.91;100.00;99505.09;4853640;28;20357;-64
2022/12/25 11:12:26;;;;;;;7.68;2.03;;;;;;;-2.03;100.00;99484.34;4867126;28;20049;-69
2022/12/25 11:15:45;;;;;;;5.32;1.90;;;;;;;-1.96;100.00;99501.56;4879445;28;20042;-68
2022/12/25 11:18:25;;;;;;;8.27;2.15;;;;;;;-2.06;100.00;99489.41;4819079;28;20073;-69
2022/12/25 11:21:06;;;;;;;7.63;1.75;;;;;;;-1.98;100.00;99513.47;4877310;28;20094;-67
2022/12/25 11:23:49;;;;;;;2.63;1.75;;;;;;;-1.97;100.00;99510.09;4855992;28;20094;-72
2022/12/25 11:26:26;;;;;;;7.90;2.42;;;;;;;-2.02;100.00;99516.78;4848823;28;20046;-69
2022/12/25 11:29:47;;;;;;;6.53;1.98;;;;;;;-2.00;100.00;99507.44;4850695;28;20054;-69
2022/12/25 11:32:38;;;;;;;5.10;2.13;;;;;;;-2.14;100.00;99498.63;4830683;28;20055;-67
2022/12/25 11:35:29;;;;;;;6.90;2.10;;;;;;;-2.06;100.00;99499.63;4854961;28;20052;-70
2022/12/25 11:38:23;;;;;;;5.57;2.38;;;;;;;-2.00;100.00;99508.34;4852925;28;21191;-68
2022/12/25 11:41:08;;;;;;;6.88;2.40;;;;;;;-2.00;100.00;99510.00;4866307;28;21105;-72
2022/12/25 11:43:51;;;;;;;5.03;1.95;;;;;;;-2.09;100.00;99499.59;4835896;28;20121;-70
2022/12/25 11:46:33;;;;;;;6.75;2.03;;;;;;;-2.02;100.00;99516.78;4857424;28;20077;-72
2022/12/25 11:49:19;;;;;;;3.85;1.52;;;;;;;-2.33;100.00;99470.03;4868975;28;20082;-61
2022/12/25 11:52:05;;;;;;;7.53;2.17;;;;;;;-2.36;100.00;99475.09;4845629;28;20350;-67
2022/12/25 11:54:50;;;;;;;3.03;1.50;;;;;;;-2.17;100.00;99482.34;4868387;28;20108;-67
2022/12/25 12:00:33;;;;;;;7.15;2.13;;;;;;;-2.02;100.00;99527.03;4840719;28;20219;-67
2022/12/25 12:03:21;;;;;;;5.78;1.60;;;;;;;-2.02;100.00;99521.91;4879661;28;20046;-70
2022/12/25 12:06:04;;;;;;;4.15;1.80;;;;;;;-2.00;100.00;99525.38;4851896;28;20065;-64
2022/12/25 12:08:49;;;;;;;5.15;1.73;;;;;;;-2.09;100.00;99520.06;4878065;28;20541;-67
2022/12/25 12:11:51;;;;;;;4.85;1.63;;;;;;;-2.03;100.00;99535.53;4856276;28;20058;-66
2022/12/25 12:15:02;;;;;;;5.43;2.00;;;;;;;-2.38;100.00;99476.75;4840995;28;20050;-62
2022/12/25 12:17:54;;;;;;;12.35;2.80;;;;;;;-2.18;100.00;99521.56;4813088;28;20054;-64
2022/12/25 12:20:42;;;;;;;5.38;1.65;;;;;;;-2.92;100.00;99390.22;4859485;28;20327;-65
2022/12/25 12:23:37;;;;;;;9.25;1.85;;;;;;;-2.21;100.00;99536.84;4865724;28;20050;-67
2022/12/25 12:26:30;;;;;;;4.85;1.83;;;;;;;-2.12;100.00;99540.44;4845453;28;20034;-64
2022/12/25 12:29:09;;;;;;;4.13;1.50;;;;;;;-2.12;100.00;99545.56;4865208;28;20266;-64
2022/12/25 12:31:46;;;;;;;6.47;1.67;;;;;;;-2.12;100.00;99555.81;4835805;28;20044;-65
2022/12/25 12:34:36;;;;;;;6.63;2.25;;;;;;;-2.24;100.00;99539.34;4862747;28;20215;-67
2022/12/25 12:37:19;;;;;;;;;;;;;;;-2.14;100.00;99542.13;4881548;28;20145;-67
2022/12/25 12:39:57;;;;;;;9.25;2.22;;;;;;;-2.14;100.00;99554.94;4857874;28;19925;-67
2022/12/25 12:42:49;;;;;;;9.93;2.50;;;;;;;-2.13;100.00;99564.31;4873224;28;20527;-64
2022/12/25 12:45:41;;;;;;;7.45;2.08;;;;;;;-2.17;100.00;99554.03;4847978;28;20041;-65
2022/12/25 12:48:38;;;;;;;6.50;2.35;;;;;;;-2.15;100.00;99565.97;4860040;28;20361;-65
2022/12/25 12:51:13;;;;;;;4.70;1.73;;;;;;;-2.13;100.00;99569.44;4847725;28;20564;-64
2022/12/25 12:54:12;;;;;;;7.57;2.38;;;;;;;-2.15;100.00;99563.41;4864308;28;20064;-67
2022/12/25 12:56:57;;;;;;;7.78;2.10;;;;;;;-2.13;100.00;99572.00;4872772;28;20046;-66
2022/12/25 12:59:51;;;;;;;7.82;2.00;;;;;;;-2.13;100.00;99574.56;4867017;28;20049;-62
2022/12/25 13:03:15;;;;;;;5.03;1.98;;;;;;;-2.12;100.00;99572.06;4848233;28;20055;-67
2022/12/25 13:06:00;;;;;;;4.75;1.83;;;;;;;-2.20;100.00;99569.31;4836887;28;20055;-66
2022/12/25 13:08:49;;;;;;;6.03;2.00;;;;;;;-2.17;100.00;99584.75;4846976;28;20074;-65
2022/12/25 13:11:51;;;;;;;8.30;1.75;;;;;;;-2.14;100.00;99577.97;4863109;28;20050;-67
2022/12/25 13:14:37;;;;;;;7.30;2.35;;;;;;;-2.25;100.00;99575.97;4855981;28;20049;-65
2022/12/25 13:20:23;;;;;;;5.05;2.10;;;;;;;-2.15;100.00;99586.44;4841964;28;20110;-66
2022/12/25 13:23:07;;;;;;;4.80;2.00;;;;;;;-2.15;100.00;99612.03;4851084;28;20045;-70
2022/12/25 13:25:43;;;;;;;8.38;2.42;;;;;;;-2.18;100.00;99583.00;4879461;28;20054;-61
2022/12/25 13:28:37;;;;;;;8.63;2.13;;;;;;;-2.17;100.00;99594.97;4863023;28;20053;-63
2022/12/25 13:31:23;;;;;;;6.50;1.88;;;;;;;-2.30;100.00;99569.88;4857280;28;20048;-63
2022/12/25 13:34:15;;;;;;;7.70;1.90;;;;;;;-2.21;100.00;99598.28;4892543;28;20080;-62
2022/12/25 13:36:55;;;;;;;7.82;2.20;;;;;;;-2.21;100.00;99593.16;4870300;28;20046;-62
2022/12/25 13:39:50;;;;;;;4.65;1.63;;;;;;;-2.22;100.00;99591.44;4881247;28;20519;-60
2022/12/25 13:42:52;;;;;;;7.50;2.30;;;;;;;-2.62;100.00;99521.41;4835135;28;20038;-59
2022/12/25 13:45:39;;;;;;;4.13;1.90;;;;;;;-2.31;100.00;99586.09;4865307;28;20106;-62
2022/12/25 13:48:33;;;;;;;8.18;2.00;;;;;;;-2.27;100.00;99593.03;4875570;28;20054;-62
2022/12/25 13:51:16;;;;;;;3.20;1.60;;;;;;;-2.26;100.00;99589.63;4868700;28;20053;-59
2022/12/25 13:54:16;;;;;;;10.13;3.15;;;;;;;-2.57;100.00;99541.97;4847731;28;20051;-61
2022/12/25 13:57:05;;;;;;;10.60;2.10;;;;;;;-2.25;100.00;99605.84;4848213;28;20060;-59
2022/12/25 13:59:50;;;;;;;8.73;2.20;;;;;;;-2.26;100.00;99594.75;4875596;28;20101;-60
2022/12/25 14:02:52;;;;;;;7.05;2.45;;;;;;;-2.30;100.00;99598.03;4868686;28;20045;-61
2022/12/25 14:05:43;;;;;;;4.80;1.65;;;;;;;-2.32;100.00;99592.06;4853448;28;20057;-62
2022/12/25 14:08:25;;;;;;;6.60;2.00;;;;;;;-2.32;100.00;99588.59;4868935;28;20081;-60
2022/12/25 14:11:16;;;;;;;4.63;2.17;;;;;;;-2.34;100.00;99588.56;4869235;28;20402;-62
2022/12/25 14:13:53;;;;;;;8.18;1.95;;;;;;;-2.34;100.00;99590.28;4871488;28;20084;-61
2022/12/25 14:16:48;;;;;;;;;;;;;;;;;;;;;
2022/12/25 14:19:33;;;;;;;3.42;1.52;;;;;;;-3.08;100.00;99471.66;4856060;28;20095;-59
2022/12/25 14:22:31;;;;;;;11.30;2.20;;;;;;;-2.66;100.00;99545.16;4862366;28;20068;-57
2022/12/25 14:25:23;;;;;;;5.93;1.80;;;;;;;-2.56;100.00;99583.75;4868331;28;20061;-59
2022/12/25 14:31:14;;;;;;;3.47;1.90;;;;;;;-2.37;100.00;99601.31;4849930;28;20049;-59
2022/12/25 14:33:49;;;;;;;5.38;1.77;;;;;;;-2.55;100.00;99575.25;4875921;28;20109;-59
2022/12/25 14:36:23;;;;;;;3.05;1.55;;;;;;;-2.38;100.00;99625.13;4887561;28;20049;-58
2022/12/25 14:39:04;;;;;;;4.90;1.50;;;;;;;-2.52;100.00;99588.09;4888949;28;20219;-59
2022/12/25 14:41:42;;;;;;;4.75;1.98;;;;;;;-2.37;100.00;99614.09;4878960;28;20065;-60
2022/12/25 14:44:37;;;;;;;3.15;1.58;;;;;;;-2.46;100.00;99601.06;4877790;28;20045;-58
2022/12/25 14:47:20;;;;;;;7.93;1.77;;;;;;;-2.68;100.00;99559.59;4847618;28;20049;-60
2022/12/25 14:50:16;;;;;;;6.47;1.98;;;;;;;-2.34;100.00;99614.16;4858763;28;20111;-58
2022/12/25 14:52:59;;;;;;;7.07;2.10;;;;;;;-2.43;100.00;99599.44;4869351;28;20057;-58
2022/12/25 14:55:59;;;;;;;4.82;1.88;;;;;;;-2.36;100.00;99618.38;4828975;28;20133;-56
2022/12/25 14:58:51;;;;;;;6.30;1.95;;;;;;;-2.45;100.00;99607.91;4882761;28;20099;-58
2022/12/25 15:01:45;;;;;;;6.55;1.70;;;;;;;-2.38;100.00;99617.47;4886574;28;20110;-59
2022/12/25 15:04:28;;;;;;;4.47;1.50;;;;;;;-2.46;100.00;99621.53;4851980;28;20039;-56
2022/12/25 15:07:12;;;;;;;9.35;2.33;;;;;;;-2.38;100.00;99641.34;4892388;28;20090;-59
2022/12/25 15:10:06;;;;;;;5.15;1.80;;;;;;;-2.38;100.00;99640.50;4876544;28;20050;-59
2022/12/25 15:13:14;;;;;;;;;;;;;;;;;;;;;
2022/12/25 15:16:07;;;;;;;6.68;2.03;;;;;;;-2.38;100.00;99630.25;4874886;28;20113;-57
2022/12/25 15:18:50;;;;;;;6.25;2.45;;;;;;;-2.49;100.00;99616.34;4860567;28;20188;-57
2022/12/25 15:24:22;;;;;;;3.45;1.60;;;;;;;-2.36;100.00;99641.41;4821480;28;20048;-60
2022/12/25 15:27:17;;;;;;;8.82;2.10;;;;;;;-2.36;100.00;99649.09;4867304;28;20065;-57
2022/12/25 15:29:52;;;;;;;8.10;2.13;;;;;;;-2.36;100.00;99649.09;4858319;28;20265;-59
2022/12/25 15:32:45;;;;;;;5.55;1.38;;;;;;;-2.35;100.00;99639.69;4866395;28;20056;-58
2022/12/25 15:35:28;;;;;;;7.83;2.00;;;;;;;-2.44;100.00;99635.22;4855575;28;20113;-57
2022/12/25 15:40:53;;;;;;;5.25;2.03;;;;;;;-2.62;100.00;99626.25;4839687;28;20073;-59
2022/12/25 15:43:39;;;;;;;8.85;2.05;;;;;;;-2.34;100.00;99657.66;4852848;28;20042;-57
2022/12/25 15:49:07;;;;;;;6.60;2.28;;;;;;;-2.34;100.00;99657.66;4866338;28;20414;-57
2022/12/25 15:52:02;;;;;;;3.65;1.35;;;;;;;-2.34;100.00;99662.78;4859432;28;20088;-57
2022/12/25 15:54:38;;;;;;;4.75;1.70;;;;;;;-2.31;100.00;99673.09;4870277;28;20494;-55
2022/12/25 15:57:35;;;;;;;5.80;1.88;;;;;;;-2.33;100.00;99674.75;4850372;28;20114;-58
2022/12/25 16:00:25;;;;;;;7.75;1.73;;;;;;;-2.37;100.00;99667.84;4853288;28;20065;-57
2022/12/25 16:03:29;;;;;;;9.60;1.98;;;;;;;-2.32;100.00;99676.50;4863864;28;20078;-57
2022/12/25 16:06:17;;;;;;;3.83;1.60;;;;;;;-2.46;100.00;99657.34;4890556;28;20052;-58
2022/12/25 16:09:01;;;;;;;4.50;1.52;;;;;;;-2.35;100.00;99681.50;4842280;28;20090;-57
2022/12/25 16:11:46;;;;;;;8.95;2.10;;;;;;;-2.35;100.00;99680.66;4867714;28;20046;-56
2022/12/25 16:14:22;;;;;;;4.43;1.67;;;;;;;-2.43;100.00;99680.44;4856250;28;20073;-56
2022/12/25 16:17:09;;;;;;;2.70;1.67;;;;;;;-2.35;100.00;99712.22;4865128;28;20363;-57
2022/12/25 16:20:01;;;;;;;5.95;2.65;;;;;;;-2.34;100.00;99700.31;4869551;28;20045;-56
2022/12/25 16:25:42;;;;;;;9.15;1.75;;;;;;;-2.33;100.00;99720.78;4868021;28;20104;-57
2022/12/25 16:28:27;;;;;;;8.13;2.38;;;;;;;-2.32;100.00;99722.56;4879859;28;20401;-56
2022/12/25 16:31:21;;;;;;;13.35;2.67;;;;;;;-2.38;100.00;99717.25;4848950;28;20083;-58
2022/12/25 16:34:08;;;;;;;8.88;1.88;;;;;;;-2.61;100.00;99675.72;4880787;28;20046;-59
2022/12/25 16:36:49;;;;;;;7.47;2.50;;;;;;;-2.26;100.00;99738.06;4877855;28;20062;-57
2022/12/25 16:39:34;;;;;;;;;;;;;;;-2.26;100.00;99740.63;4871401;28;20093;-57
2022/12/25 16:42:24;;;;;;;3.22;1.60;;;;;;;-2.22;100.00;99744.09;4864646;28;19944;-59
2022/12/25 16:45:14;;;;;;;5.97;2.33;;;;;;;-2.30;100.00;99733.66;4869165;28;20404;-58
2022/12/25 16:48:04;;;;;;;6.22;1.90;;;;;;;-2.16;100.00;99754.53;4883144;28;20053;-58
2022/12/25 16:50:46;;;;;;;2.80;1.77;;;;;;;-2.50;100.00;99691.34;4901663;28;20041;-58
2022/12/25 16:53:37;;;;;;;;;;;;;;;;;;;;;
2022/12/25 16:56:19;;;;;;;3.67;1.55;;;;;;;-2.09;100.00;99755.56;4872964;28;20050;-58
2022/12/25 16:58:59;;;;;;;4.20;1.63;;;;;;;-1.99;100.00;99770.34;4892938;28;20049;-56
2022/12/25 17:01:42;;;;;;;5.28;1.42;;;;;;;-1.94;100.00;99781.56;4896102;28;20041;-56
2022/12/25 17:04:24;;;;;;;5.68;1.95;;;;;;;-1.89;100.00;99779.13;4898995;28;20337;-57
2022/12/25 17:07:17;;;;;;;4.43;1.30;;;;;;;-2.15;100.00;99734.91;4876195;28;20056;-58
2022/12/25 17:09:55;;;;;;;3.80;1.40;;;;;;;-1.83;100.00;99785.25;4890061;28;20053;-57